Time;durP1;ratioP1;P1;durP2;ratioP2;P2;SDS_P1;SDS_P2;PMS_P1;PMS_P2;Temp;Humidity;BMP_temperature;BMP_pressure;BME280_temperature;BME280_humidity;BME280_pressure;Samples;Min_cycle;Max_cycle;Signal;HPM_P1;HPM_P2
2021/06/21 00:00:02;;;;;;;3.40;0.90;;;16.70;99.90;;;;;;5056333;28;20450;-77
2021/06/21 00:02:28;;;;;;;4.27;1.07;;;16.80;99.90;;;;;;5056329;28;20452;-77
2021/06/21 00:04:55;;;;;;;4.00;1.10;;;16.80;99.90;;;;;;5056591;28;20445;-77
2021/06/21 00:07:22;;;;;;;4.97;1.10;;;16.80;99.90;;;;;;5056259;28;20952;-77
2021/06/21 00:09:49;;;;;;;2.30;1.00;;;16.80;99.90;;;;;;5056485;28;20445;-77
2021/06/21 00:12:17;;;;;;;3.73;1.77;;;16.70;99.90;;;;;;5056340;28;20469;-77
2021/06/21 00:14:46;;;;;;;3.13;1.27;;;16.70;99.90;;;;;;5056351;28;20545;-77
2021/06/21 00:17:16;;;;;;;3.47;1.17;;;16.70;99.90;;;;;;5056079;28;20478;-77
2021/06/21 00:19:42;;;;;;;3.63;1.10;;;16.70;99.90;;;;;;5056321;28;20454;-76
2021/06/21 00:22:09;;;;;;;4.23;1.37;;;16.70;99.90;;;;;;5056119;28;20453;-76
2021/06/21 00:24:36;;;;;;;4.87;1.80;;;16.70;99.90;;;;;;5056194;28;20446;-77
2021/06/21 00:27:03;;;;;;;4.33;1.27;;;16.80;99.90;;;;;;5055845;28;20448;-77
2021/06/21 00:29:30;;;;;;;4.10;1.20;;;16.80;99.90;;;;;;5056103;28;20449;-77
2021/06/21 00:31:58;;;;;;;2.80;1.10;;;16.80;99.90;;;;;;5055659;28;20446;-77
2021/06/21 00:34:24;;;;;;;1.40;0.77;;;16.80;99.90;;;;;;5055635;28;20445;-77
2021/06/21 00:36:51;;;;;;;3.40;1.33;;;16.80;99.90;;;;;;5054388;28;20814;-77
2021/06/21 00:39:18;;;;;;;1.90;1.10;;;16.80;99.90;;;;;;5055615;28;20449;-77
2021/06/21 00:41:45;;;;;;;4.23;1.40;;;16.90;99.90;;;;;;5055953;28;20449;-77
2021/06/21 00:44:12;;;;;;;5.43;1.20;;;16.90;99.90;;;;;;5055450;28;20989;-77
2021/06/21 00:46:39;;;;;;;1.20;1.07;;;16.90;99.90;;;;;;5055746;28;20449;-77
2021/06/21 00:49:07;;;;;;;3.33;1.00;;;16.90;99.90;;;;;;5055745;28;20445;-77
2021/06/21 00:51:34;;;;;;;1.70;1.03;;;17.00;99.90;;;;;;5055409;28;20945;-77
2021/06/21 00:54:01;;;;;;;3.13;0.90;;;16.90;99.90;;;;;;5055142;28;20995;-77
2021/06/21 00:56:28;;;;;;;2.83;1.07;;;16.90;99.90;;;;;;5055321;28;20941;-75
2021/06/21 00:59:00;;;;;;;3.00;1.00;;;16.90;99.90;;;;;;5055537;28;20473;-76
2021/06/21 01:01:27;;;;;;;1.40;0.90;;;16.90;99.90;;;;;;5055202;28;20442;-75
2021/06/21 01:03:54;;;;;;;3.03;1.00;;;16.80;99.90;;;;;;5055433;28;20562;-75
2021/06/21 01:06:22;;;;;;;5.17;1.30;;;16.80;99.90;;;;;;5055440;28;20453;-75
2021/06/21 01:08:49;;;;;;;4.13;1.10;;;16.80;99.90;;;;;;5055195;28;20830;-75
2021/06/21 01:11:17;;;;;;;4.37;1.53;;;16.80;99.90;;;;;;5055340;28;20440;-75
2021/06/21 01:13:58;;;;;;;5.60;1.77;;;16.80;99.90;;;;;;5054935;28;20466;-75
2021/06/21 01:16:28;;;;;;;3.30;1.20;;;16.90;99.90;;;;;;5055270;28;20529;-75
2021/06/21 01:19:02;;;;;;;2.33;1.50;;;16.80;99.90;;;;;;5054838;28;20473;-75
2021/06/21 01:22:17;;;;;;;9.83;3.00;;;16.90;99.90;;;;;;5054852;28;20798;-76
2021/06/21 01:25:09;;;;;;;2.60;1.37;;;16.90;99.90;;;;;;5008005;28;20448;-75
2021/06/21 01:27:50;;;;;;;2.80;1.10;;;16.90;99.90;;;;;;5054731;28;20809;-75
2021/06/21 01:30:19;;;;;;;7.93;1.40;;;16.80;99.90;;;;;;5055052;28;20429;-75
2021/06/21 01:32:49;;;;;;;4.40;1.37;;;16.80;99.90;;;;;;5054887;28;20873;-75
2021/06/21 01:35:20;;;;;;;2.93;1.77;;;16.80;99.90;;;;;;5054891;28;20446;-75
2021/06/21 01:37:48;;;;;;;3.60;1.50;;;16.90;99.90;;;;;;5054482;28;21003;-75
2021/06/21 01:40:19;;;;;;;5.57;1.83;;;16.90;99.90;;;;;;5054770;28;20445;-75
2021/06/21 01:42:50;;;;;;;7.30;1.87;;;16.90;99.90;;;;;;5054650;28;20465;-75
2021/06/21 01:45:18;;;;;;;5.77;1.87;;;17.00;99.90;;;;;;5054734;28;20426;-75
2021/06/21 01:47:49;;;;;;;6.93;1.50;;;17.00;99.90;;;;;;5053962;28;20937;-75
2021/06/21 01:50:19;;;;;;;6.03;2.73;;;17.00;99.90;;;;;;5054624;28;20430;-76
2021/06/21 01:52:50;;;;;;;1.83;1.53;;;16.90;99.90;;;;;;5054792;28;20834;-75
2021/06/21 01:55:21;;;;;;;7.13;1.93;;;16.90;99.90;;;;;;5054532;28;20549;-75
2021/06/21 01:57:48;;;;;;;10.00;2.03;;;16.90;99.90;;;;;;5054089;28;20995;-75
2021/06/21 02:00:16;;;;;;;4.90;1.90;;;16.90;99.90;;;;;;5054353;28;20450;-75
2021/06/21 02:02:44;;;;;;;4.73;2.10;;;16.90;99.90;;;;;;5054261;28;20462;-75
2021/06/21 02:05:15;;;;;;;3.40;1.70;;;16.90;99.90;;;;;;5053985;28;20964;-75
2021/06/21 02:07:43;;;;;;;7.50;1.97;;;16.90;99.90;;;;;;5054304;28;20434;-75
2021/06/21 02:10:13;;;;;;;5.07;1.50;;;16.90;99.90;;;;;;5054181;28;20499;-75
2021/06/21 02:12:40;;;;;;;8.63;1.97;;;16.90;99.90;;;;;;5053787;28;20466;-75
2021/06/21 02:15:09;;;;;;;2.80;1.90;;;16.80;99.90;;;;;;5054097;28;20804;-75
2021/06/21 02:17:37;;;;;;;3.33;1.67;;;16.80;99.90;;;;;;5054018;28;20477;-75
2021/06/21 02:20:06;;;;;;;5.77;1.70;;;16.90;99.90;;;;;;5054008;28;20453;-75
2021/06/21 02:22:35;;;;;;;4.57;1.73;;;16.90;99.90;;;;;;5053922;28;20466;-75
2021/06/21 02:25:05;;;;;;;3.57;1.33;;;16.90;99.90;;;;;;5053952;28;20446;-75
2021/06/21 02:27:33;;;;;;;4.67;1.40;;;16.90;99.90;;;;;;5053654;28;20445;-75
2021/06/21 02:30:00;;;;;;;3.13;1.10;;;16.90;99.90;;;;;;5053860;28;20446;-75
2021/06/21 02:32:27;;;;;;;10.90;1.30;;;16.90;99.90;;;;;;5053754;28;20473;-75
2021/06/21 02:34:55;;;;;;;3.20;1.30;;;16.90;99.90;;;;;;5053769;28;20449;-75
2021/06/21 02:37:22;;;;;;;4.67;1.13;;;16.90;99.90;;;;;;5053695;28;20457;-75
2021/06/21 02:39:50;;;;;;;1.93;1.13;;;16.90;99.90;;;;;;5054269;28;20457;-75
2021/06/21 02:42:18;;;;;;;5.97;1.43;;;16.90;99.90;;;;;;5053591;28;20462;-75
2021/06/21 02:44:45;;;;;;;3.83;1.40;;;16.90;99.90;;;;;;5053273;28;20788;-75
2021/06/21 02:47:14;;;;;;;4.27;0.90;;;16.90;99.90;;;;;;5053524;28;20449;-75
2021/06/21 02:49:41;;;;;;;9.03;1.60;;;16.90;99.90;;;;;;5053230;28;20569;-75
2021/06/21 02:52:15;;;;;;;4.50;1.33;;;16.90;99.90;;;;;;5053216;28;20495;-75
2021/06/21 02:54:49;;;;;;;6.97;1.40;;;16.90;99.90;;;;;;5053237;28;20909;-75
2021/06/21 02:57:29;;;;;;;3.13;1.30;;;16.80;99.90;;;;;;5053392;28;20430;-75
2021/06/21 02:59:56;;;;;;;7.47;1.30;;;16.80;99.90;;;;;;5052759;28;20432;-75
2021/06/21 03:02:23;;;;;;;3.87;0.97;;;16.80;99.90;;;;;;5053304;28;20829;-75
2021/06/21 03:04:51;;;;;;;2.17;0.80;;;16.80;99.90;;;;;;5053061;28;20960;-75
2021/06/21 03:07:22;;;;;;;2.50;1.00;;;16.80;99.90;;;;;;5053305;28;20448;-75
2021/06/21 03:09:49;;;;;;;3.33;1.07;;;16.90;99.90;;;;;;5053058;28;20525;-75
2021/06/21 03:12:21;;;;;;;4.13;1.40;;;16.90;99.90;;;;;;5053156;28;20465;-75
2021/06/21 03:14:48;;;;;;;3.97;1.43;;;16.90;99.90;;;;;;5052949;28;20794;-75
2021/06/21 03:17:17;;;;;;;1.67;1.20;;;16.80;99.90;;;;;;5053192;28;20441;-75
2021/06/21 03:19:45;;;;;;;3.50;1.00;;;16.80;99.90;;;;;;5053149;28;20839;-75
2021/06/21 03:22:12;;;;;;;1.73;1.03;;;16.80;99.90;;;;;;5053055;28;20457;-75
2021/06/21 03:24:39;;;;;;;6.20;1.10;;;16.80;99.90;;;;;;5053127;28;20450;-75
2021/06/21 03:27:07;;;;;;;5.30;1.20;;;16.80;99.90;;;;;;5053126;28;20452;-75
2021/06/21 03:29:37;;;;;;;6.73;1.10;;;16.80;99.90;;;;;;5053106;28;20469;-75
2021/06/21 03:32:25;;;;;;;5.90;1.10;;;16.80;99.90;;;;;;5053019;28;20481;-75
2021/06/21 03:34:52;;;;;;;3.87;1.00;;;16.80;99.90;;;;;;5052748;28;20906;-75
2021/06/21 03:37:19;;;;;;;5.13;1.50;;;16.80;99.90;;;;;;5052999;28;20450;-75
2021/06/21 03:39:46;;;;;;;7.90;1.40;;;16.70;99.90;;;;;;5052571;28;20474;-75
2021/06/21 03:42:12;;;;;;;2.30;1.00;;;16.80;99.90;;;;;;5052870;28;20446;-76
2021/06/21 03:44:40;;;;;;;6.00;1.50;;;16.80;99.90;;;;;;5052681;28;20453;-75
2021/06/21 03:47:09;;;;;;;4.13;0.90;;;16.80;99.90;;;;;;5052913;28;20449;-75
2021/06/21 03:49:36;;;;;;;3.87;1.10;;;16.80;99.90;;;;;;5052901;28;20450;-75
2021/06/21 03:52:03;;;;;;;3.10;1.07;;;16.80;99.90;;;;;;5052554;28;20453;-76
2021/06/21 03:54:29;;;;;;;5.53;1.40;;;16.80;99.90;;;;;;5052860;28;20446;-76
2021/06/21 03:56:56;;;;;;;6.43;1.03;;;16.80;99.90;;;;;;5052843;28;20453;-76
2021/06/21 03:59:23;;;;;;;3.03;1.87;;;16.80;99.90;;;;;;5052380;28;20853;-75
2021/06/21 04:01:51;;;;;;;6.27;1.23;;;16.80;99.90;;;;;;5052522;28;20438;-75
2021/06/21 04:04:18;;;;;;;4.10;1.30;;;16.80;99.90;;;;;;5052692;28;20476;-75
2021/06/21 04:06:45;;;;;;;5.33;1.00;;;16.70;99.90;;;;;;5052720;28;20442;-75
2021/06/21 04:09:12;;;;;;;7.03;1.33;;;16.70;99.90;;;;;;5052716;28;20445;-75
2021/06/21 04:11:39;;;;;;;3.27;2.67;;;16.70;99.90;;;;;;5056091;28;20949;-75
2021/06/21 04:14:06;;;;;;;4.23;1.87;;;16.70;99.90;;;;;;5056085;28;20464;-75
2021/06/21 04:16:33;;;;;;;4.90;1.20;;;16.70;99.90;;;;;;5056327;28;20453;-75
2021/06/21 04:19:01;;;;;;;7.47;1.70;;;16.60;99.90;;;;;;5055954;28;20996;-76
2021/06/21 04:21:28;;;;;;;3.57;1.37;;;16.60;99.90;;;;;;5056145;28;20820;-75
2021/06/21 04:23:55;;;;;;;3.87;1.40;;;16.60;99.90;;;;;;5056210;28;20457;-75
2021/06/21 04:26:22;;;;;;;9.90;1.20;;;16.60;99.90;;;;;;5055832;28;20818;-76
2021/06/21 04:28:49;;;;;;;4.37;1.63;;;16.50;99.90;;;;;;5056118;28;20536;-75
2021/06/21 04:31:16;;;;;;;5.60;1.57;;;16.50;99.90;;;;;;5055782;28;20942;-75
2021/06/21 04:33:42;;;;;;;7.77;1.90;;;16.50;99.90;;;;;;5055737;28;20462;-75
2021/06/21 04:36:11;;;;;;;3.57;1.30;;;16.50;99.90;;;;;;5055734;28;20452;-75
2021/06/21 04:38:38;;;;;;;4.77;1.77;;;16.50;99.90;;;;;;5055932;28;20884;-75
2021/06/21 04:41:06;;;;;;;5.40;1.47;;;16.60;99.90;;;;;;5055953;28;20449;-75
2021/06/21 04:43:33;;;;;;;3.30;1.50;;;16.60;99.90;;;;;;5055874;28;20480;-75
2021/06/21 04:46:00;;;;;;;4.83;1.63;;;16.60;99.90;;;;;;5055561;28;20926;-75
2021/06/21 04:48:27;;;;;;;3.60;1.10;;;16.60;99.90;;;;;;5055799;28;20456;-75
2021/06/21 04:50:54;;;;;;;6.80;1.50;;;16.60;99.90;;;;;;5055673;28;20450;-75
2021/06/21 04:53:22;;;;;;;4.03;1.30;;;16.60;99.90;;;;;;5055153;28;21008;-75
2021/06/21 04:55:49;;;;;;;5.90;1.30;;;16.70;99.90;;;;;;5055347;28;21019;-75
2021/06/21 04:58:16;;;;;;;1.77;0.80;;;16.80;99.90;;;;;;5055285;28;20477;-75
2021/06/21 05:00:42;;;;;;;2.90;1.30;;;16.70;99.90;;;;;;5055596;28;20445;-75
2021/06/21 05:03:09;;;;;;;2.20;1.43;;;16.70;99.90;;;;;;5055198;28;20453;-75
2021/06/21 05:05:37;;;;;;;3.17;1.10;;;16.70;99.90;;;;;;5055504;28;20449;-75
2021/06/21 05:08:04;;;;;;;4.67;1.20;;;16.80;99.90;;;;;;5055448;28;20480;-75
2021/06/21 05:10:32;;;;;;;2.80;1.10;;;16.90;99.90;;;;;;5055394;28;20449;-75
2021/06/21 05:12:59;;;;;;;2.50;1.00;;;17.00;99.90;;;;;;5055249;28;20470;-76
2021/06/21 05:15:26;;;;;;;5.10;1.20;;;17.10;99.90;;;;;;5054994;28;20949;-76
2021/06/21 05:17:55;;;;;;;4.40;1.30;;;17.20;99.90;;;;;;5054926;28;20821;-76
2021/06/21 05:20:21;;;;;;;5.90;1.30;;;17.40;99.90;;;;;;5054832;28;21020;-76
2021/06/21 05:22:51;;;;;;;5.20;1.73;;;17.60;99.90;;;;;;5054356;28;20835;-76
2021/06/21 05:25:18;;;;;;;4.17;1.13;;;17.70;99.90;;;;;;5055135;28;20461;-76
2021/06/21 05:27:46;;;;;;;5.30;1.30;;;17.80;99.90;;;;;;5055010;28;20454;-76
2021/06/21 05:30:14;;;;;;;4.20;2.00;;;17.80;99.90;;;;;;5054715;28;20933;-76
2021/06/21 05:32:41;;;;;;;4.03;1.50;;;17.80;99.90;;;;;;5054893;28;20476;-76
2021/06/21 05:35:11;;;;;;;4.53;1.37;;;17.90;99.90;;;;;;5054614;28;20481;-81
2021/06/21 05:37:37;;;;;;;2.30;1.03;;;17.90;99.90;;;;;;5054887;28;20468;-81
2021/06/21 05:40:06;;;;;;;2.63;1.30;;;18.00;99.90;;;;;;5054733;28;20474;-81
2021/06/21 05:42:33;;;;;;;4.80;1.20;;;18.10;99.90;;;;;;5054726;28;20469;-80
2021/06/21 05:45:01;;;;;;;4.80;1.47;;;18.20;99.90;;;;;;5054673;28;20494;-80
2021/06/21 05:47:28;;;;;;;3.37;2.07;;;18.20;99.90;;;;;;5054690;28;20434;-80
2021/06/21 05:49:54;;;;;;;3.00;1.17;;;18.30;99.90;;;;;;5054623;28;20468;-80
2021/06/21 05:52:21;;;;;;;5.03;1.43;;;18.40;99.90;;;;;;5054027;28;21012;-80
2021/06/21 05:54:48;;;;;;;5.00;1.13;;;18.50;99.90;;;;;;5054639;28;20434;-80
2021/06/21 05:57:15;;;;;;;2.03;0.80;;;18.60;99.90;;;;;;5054504;28;20445;-80
2021/06/21 05:59:41;;;;;;;5.07;1.03;;;18.70;99.90;;;;;;5054333;28;20480;-80
2021/06/21 06:02:09;;;;;;;1.43;1.03;;;18.80;99.90;;;;;;5054368;28;20452;-80
2021/06/21 06:04:36;;;;;;;4.37;1.30;;;18.80;99.90;;;;;;5054360;28;20450;-80
2021/06/21 06:07:03;;;;;;;5.33;1.10;;;18.90;99.90;;;;;;5054346;28;20534;-79
2021/06/21 06:09:30;;;;;;;7.50;1.43;;;19.10;99.90;;;;;;5054225;28;20465;-79
2021/06/21 06:11:57;;;;;;;4.80;1.00;;;19.40;99.90;;;;;;5054140;28;20454;-80
2021/06/21 06:14:24;;;;;;;3.23;0.80;;;19.50;99.90;;;;;;5054145;28;20450;-80
2021/06/21 06:16:50;;;;;;;2.00;0.83;;;19.60;99.90;;;;;;5054115;28;20441;-80
2021/06/21 06:19:18;;;;;;;1.33;0.77;;;19.90;99.90;;;;;;5053996;28;20473;-80
2021/06/21 06:21:46;;;;;;;2.60;1.20;;;20.10;99.90;;;;;;5053755;28;20937;-81
2021/06/21 06:24:13;;;;;;;4.27;0.87;;;20.20;99.90;;;;;;5053697;28;20996;-80
2021/06/21 06:26:42;;;;;;;2.00;1.10;;;20.30;99.90;;;;;;5053938;28;20445;-80
2021/06/21 06:29:09;;;;;;;4.00;1.00;;;20.50;99.90;;;;;;5054008;28;20785;-80
2021/06/21 06:31:36;;;;;;;3.33;1.03;;;20.80;99.90;;;;;;5053908;28;20429;-80
2021/06/21 06:34:03;;;;;;;2.27;1.10;;;21.10;99.90;;;;;;5053522;28;20465;-80
2021/06/21 06:36:31;;;;;;;3.07;1.10;;;21.30;99.90;;;;;;5053822;28;20429;-81
2021/06/21 06:38:57;;;;;;;1.73;1.00;;;21.60;99.90;;;;;;5053448;28;20469;-80
2021/06/21 06:41:24;;;;;;;3.40;1.00;;;21.70;99.90;;;;;;5053689;28;20433;-80
2021/06/21 06:43:51;;;;;;;2.63;0.90;;;21.80;99.90;;;;;;5053350;28;20915;-81
2021/06/21 06:46:18;;;;;;;1.90;0.90;;;21.90;99.90;;;;;;5053360;28;20670;-81
2021/06/21 06:48:44;;;;;;;3.17;1.30;;;21.90;99.90;;;;;;5053582;28;20772;-81
2021/06/21 06:51:11;;;;;;;3.13;1.00;;;22.00;99.90;;;;;;5053584;28;20432;-81
2021/06/21 06:53:42;;;;;;;2.80;1.10;;;22.20;99.90;;;;;;5053101;28;20489;-81
2021/06/21 06:58:52;;;;;;;3.00;0.90;;;22.30;99.90;;;;;;5053481;28;20940;-81
2021/06/21 07:01:20;;;;;;;3.27;0.90;;;22.40;99.90;;;;;;5053444;28;20448;-81
2021/06/21 07:03:49;;;;;;;5.03;1.30;;;22.30;99.90;;;;;;5053027;28;20998;-81
2021/06/21 07:06:16;;;;;;;4.50;1.50;;;22.20;99.90;;;;;;5053030;28;20445;-81
2021/06/21 07:08:45;;;;;;;3.07;1.13;;;22.20;99.90;;;;;;5053329;28;20453;-81
2021/06/21 07:11:12;;;;;;;3.10;1.20;;;22.30;99.90;;;;;;5053306;28;20498;-82
2021/06/21 07:13:39;;;;;;;1.77;1.10;;;22.30;99.90;;;;;;5053201;28;20469;-81
2021/06/21 07:16:06;;;;;;;1.97;0.90;;;22.10;99.90;;;;;;5053270;28;20813;-83
2021/06/21 07:18:33;;;;;;;2.03;0.83;;;22.10;99.90;;;;;;5052901;28;20964;-82
2021/06/21 07:20:59;;;;;;;6.10;1.00;;;22.20;99.90;;;;;;5053125;28;20485;-81
2021/06/21 07:23:26;;;;;;;1.87;0.80;;;22.30;99.90;;;;;;5053144;28;20465;-81
2021/06/21 07:25:54;;;;;;;2.37;0.67;;;22.40;99.90;;;;;;5053145;28;20453;-81
2021/06/21 07:28:21;;;;;;;3.77;1.23;;;22.40;99.90;;;;;;5053169;28;20464;-81
2021/06/21 07:30:48;;;;;;;2.90;1.07;;;22.70;99.90;;;;;;5053105;28;20453;-82
2021/06/21 07:33:14;;;;;;;1.60;1.20;;;23.10;99.90;;;;;;5052982;28;20472;-82
2021/06/21 07:35:41;;;;;;;2.40;0.90;;;23.70;99.90;;;;;;5053005;28;20221;-83
2021/06/21 07:38:08;;;;;;;4.30;1.13;;;24.00;99.90;;;;;;5053096;28;20190;-81
2021/06/21 07:40:35;;;;;;;1.13;0.90;;;23.80;99.90;;;;;;5052951;28;20215;-81
2021/06/21 07:43:04;;;;;;;2.78;0.90;;;23.90;99.90;;;;;;5052948;28;20222;-82
2021/06/21 07:45:31;;;;;;;1.98;0.90;;;23.90;99.90;;;;;;5054755;28;20690;-81
2021/06/21 07:47:59;;;;;;;1.80;0.80;;;24.00;99.90;;;;;;5056929;28;20210;-81
2021/06/21 07:50:27;;;;;;;8.27;0.82;;;24.00;99.90;;;;;;5056614;28;20199;-82
2021/06/21 07:52:54;;;;;;;3.03;1.00;;;24.20;99.90;;;;;;5056501;28;20234;-81
2021/06/21 07:55:24;;;;;;;2.70;1.13;;;24.30;99.90;;;;;;5056447;28;20575;-82
2021/06/21 07:57:51;;;;;;;3.17;0.90;;;24.50;99.90;;;;;;5056738;28;20210;-82
2021/06/21 08:00:22;;;;;;;3.15;0.88;;;24.90;99.90;;;;;;5056590;28;20233;-82
2021/06/21 08:02:49;;;;;;;2.45;0.90;;;25.10;99.90;;;;;;5056876;28;20349;-81
2021/06/21 08:05:18;;;;;;;0.95;0.95;;;25.00;99.90;;;;;;5056495;28;20214;-83
2021/06/21 08:07:45;;;;;;;3.30;1.00;;;25.20;99.90;;;;;;5056239;28;20209;-82
2021/06/21 08:10:13;;;;;;;1.55;0.80;;;25.40;99.90;;;;;;5056497;28;20201;-82
2021/06/21 08:12:41;;;;;;;2.60;0.70;;;25.60;99.90;;;;;;5056083;28;20695;-82
2021/06/21 08:15:11;;;;;;;0.77;0.77;;;25.50;99.90;;;;;;5056441;28;20203;-82
2021/06/21 08:17:40;;;;;;;1.00;0.90;;;25.30;99.90;;;;;;5056393;28;20211;-81
2021/06/21 08:20:10;;;;;;;1.10;0.75;;;25.30;99.90;;;;;;5056244;28;20222;-82
2021/06/21 08:22:37;;;;;;;3.08;2.65;;;25.00;99.90;;;;;;5056279;28;20227;-81
2021/06/21 08:25:05;;;;;;;1.35;0.95;;;25.40;99.90;;;;;;5055992;28;20187;-82
2021/06/21 08:27:31;;;;;;;1.88;0.80;;;26.10;99.90;;;;;;5056156;28;20210;-82
2021/06/21 08:29:59;;;;;;;2.42;0.80;;;26.50;99.90;;;;;;5056200;28;20184;-82
2021/06/21 08:32:25;;;;;;;3.70;0.75;;;26.70;99.90;;;;;;5056133;28;20310;-82
2021/06/21 08:34:54;;;;;;;1.88;0.85;;;26.90;99.90;;;;;;5056141;28;20555;-82
2021/06/21 08:37:21;;;;;;;4.90;0.85;;;26.90;99.90;;;;;;5055762;28;20192;-82
2021/06/21 08:39:50;;;;;;;1.20;1.00;;;27.10;99.90;;;;;;5056014;28;20324;-82
2021/06/21 08:42:17;;;;;;;3.47;1.15;;;27.30;99.90;;;;;;5055932;28;20191;-82
2021/06/21 08:44:44;;;;;;;3.42;0.93;;;27.20;99.90;;;;;;5055612;28;20713;-83
2021/06/21 08:47:13;;;;;;;1.83;0.93;;;27.30;99.90;;;;;;5055625;28;20756;-82
2021/06/21 08:49:45;;;;;;;1.35;0.88;;;27.50;99.90;;;;;;5055841;28;20193;-82
2021/06/21 08:52:15;;;;;;;4.97;0.98;;;27.40;99.90;;;;;;5055510;28;20197;-82
2021/06/21 08:54:42;;;;;;;1.17;0.85;;;27.30;99.90;;;;;;5055443;28;20643;-81
2021/06/21 08:57:10;;;;;;;1.92;1.30;;;27.10;99.90;;;;;;5054507;28;20182;-82
2021/06/21 08:59:39;;;;;;;2.33;0.95;;;27.00;99.90;;;;;;5055633;28;20302;-81
2021/06/21 09:02:06;;;;;;;1.15;0.80;;;26.80;99.90;;;;;;5055266;28;20214;-82
2021/06/21 09:04:37;;;;;;;2.65;1.08;;;26.70;99.90;;;;;;5055255;28;20732;-81
2021/06/21 09:07:22;;;;;;;1.30;1.20;;;26.50;99.90;;;;;;5055221;28;20183;-82
2021/06/21 09:09:50;;;;;;;1.70;1.08;;;26.50;99.90;;;;;;5055177;28;20194;-82
2021/06/21 09:12:22;;;;;;;1.55;1.05;;;26.70;99.90;;;;;;5055054;28;20647;-81
2021/06/21 09:14:50;;;;;;;2.40;0.90;;;26.70;99.90;;;;;;5055126;28;20233;-81
2021/06/21 09:17:19;;;;;;;2.58;0.75;;;26.60;99.90;;;;;;5055382;28;20209;-82
2021/06/21 09:19:51;;;;;;;2.03;1.10;;;26.40;99.90;;;;;;5055289;28;20329;-82
2021/06/21 09:22:33;;;;;;;2.97;1.00;;;26.20;99.90;;;;;;5055898;28;20237;-81
2021/06/21 09:25:05;;;;;;;2.72;1.48;;;26.20;99.90;;;;;;5055257;28;20218;-81
2021/06/21 09:27:33;;;;;;;3.47;1.08;;;26.40;99.90;;;;;;5055152;28;20210;-82
2021/06/21 09:30:07;;;;;;;2.08;1.27;;;26.20;99.90;;;;;;5055077;28;20183;-81
2021/06/21 09:32:46;;;;;;;4.70;1.15;;;26.30;99.90;;;;;;5054988;28;20222;-81
2021/06/21 09:35:40;;;;;;;1.92;1.40;;;26.40;99.90;;;;;;5054672;28;20190;-82
2021/06/21 09:38:15;;;;;;;1.60;1.10;;;26.70;99.90;;;;;;5055002;28;20305;-82
2021/06/21 09:40:45;;;;;;;1.67;1.10;;;26.80;99.90;;;;;;5054529;28;20206;-82
2021/06/21 09:43:21;;;;;;;2.60;1.15;;;27.10;99.90;;;;;;5054466;28;20219;-82
2021/06/21 09:46:09;;;;;;;2.20;1.17;;;27.20;99.90;;;;;;5054815;28;20182;-81
2021/06/21 09:48:38;;;;;;;1.90;1.08;;;27.20;99.80;;;;;;5054758;28;20274;-82
2021/06/21 09:51:20;;;;;;;2.45;1.00;;;27.20;98.80;;;;;;5054665;28;20187;-82
2021/06/21 09:53:56;;;;;;;1.35;0.70;;;27.30;98.00;;;;;;5054406;28;20265;-82
2021/06/21 09:56:36;;;;;;;1.50;1.40;;;27.40;98.50;;;;;;5054503;28;20186;-82
2021/06/21 09:59:20;;;;;;;1.58;0.90;;;27.40;97.80;;;;;;5054583;28;20183;-82
2021/06/21 10:02:08;;;;;;;4.57;1.42;;;27.50;97.80;;;;;;5054203;28;20206;-81
2021/06/21 10:04:36;;;;;;;1.45;1.33;;;27.60;97.10;;;;;;5054445;28;20274;-81
2021/06/21 10:07:04;;;;;;;1.40;0.90;;;27.70;96.70;;;;;;5054000;28;20198;-82
2021/06/21 10:09:32;;;;;;;1.83;1.05;;;27.70;96.40;;;;;;5053942;28;20186;-82
2021/06/21 10:11:59;;;;;;;1.30;0.90;;;27.80;95.10;;;;;;5053946;28;20194;-82
2021/06/21 10:14:27;;;;;;;1.10;0.80;;;27.70;95.50;;;;;;5054650;28;20217;-82
2021/06/21 10:16:55;;;;;;;1.67;0.90;;;27.70;95.90;;;;;;5054422;28;20248;-84
2021/06/21 10:19:22;;;;;;;2.70;1.00;;;27.60;94.10;;;;;;5054323;28;20191;-81
2021/06/21 10:21:55;;;;;;;2.78;0.90;;;27.50;95.20;;;;;;5053872;28;20203;-81
2021/06/21 10:24:26;;;;;;;2.55;1.30;;;27.50;95.40;;;;;;5054487;28;20226;-80
2021/06/21 10:26:54;;;;;;;3.83;1.25;;;27.70;95.10;;;;;;5053704;28;20755;-83
2021/06/21 10:29:22;;;;;;;4.53;1.20;;;27.80;96.40;;;;;;5053997;28;20187;-83
2021/06/21 10:31:49;;;;;;;0.90;0.90;;;27.90;95.00;;;;;;5053692;28;20187;-83
2021/06/21 10:34:18;;;;;;;2.15;1.05;;;28.00;95.30;;;;;;5053872;28;20222;-83
2021/06/21 10:36:46;;;;;;;2.10;1.25;;;28.20;95.10;;;;;;5053840;28;20198;-83
2021/06/21 10:39:16;;;;;;;1.50;1.10;;;28.30;94.20;;;;;;5053863;28;20191;-83
2021/06/21 10:42:05;;;;;;;0.80;0.73;;;28.40;94.40;;;;;;5053388;28;20211;-83
2021/06/21 10:44:38;;;;;;;1.30;0.98;;;28.30;93.30;;;;;;5053311;28;20202;-83
2021/06/21 10:47:35;;;;;;;1.73;1.00;;;28.30;94.20;;;;;;5053408;28;20191;-82
2021/06/21 10:50:06;;;;;;;0.90;0.90;;;28.30;91.90;;;;;;5053663;28;20557;-79
2021/06/21 10:52:47;;;;;;;2.90;1.13;;;28.20;93.90;;;;;;5053457;28;20238;-82
2021/06/21 10:55:48;;;;;;;1.45;1.35;;;28.10;93.20;;;;;;5053944;28;20198;-83
2021/06/21 10:58:45;;;;;;;1.60;1.05;;;28.30;93.60;;;;;;5054199;28;20539;-82
2021/06/21 11:01:22;;;;;;;1.25;0.80;;;28.30;94.70;;;;;;5053446;28;20310;-82
2021/06/21 11:03:50;;;;;;;2.25;1.10;;;28.30;93.20;;;;;;5053187;28;20222;-82
2021/06/21 11:06:51;;;;;;;0.90;0.90;;;28.50;92.00;;;;;;5053878;28;20183;-83
2021/06/21 11:09:43;;;;;;;2.58;1.30;;;28.50;92.10;;;;;;5053163;28;20531;-82
2021/06/21 11:12:36;;;;;;;1.30;1.13;;;28.60;90.80;;;;;;5053160;28;20199;-83
2021/06/21 11:15:17;;;;;;;1.58;0.90;;;28.70;90.60;;;;;;5053331;28;20191;-82
2021/06/21 11:17:56;;;;;;;2.20;0.90;;;28.60;88.50;;;;;;5053287;28;20248;-82
2021/06/21 11:20:37;;;;;;;1.40;0.95;;;28.30;88.00;;;;;;5052483;28;20589;-82
2021/06/21 11:23:06;;;;;;;1.17;1.15;;;28.20;87.10;;;;;;5052854;28;20336;-82
2021/06/21 11:25:40;;;;;;;1.52;1.00;;;28.10;90.30;;;;;;5053212;28;20191;-82
2021/06/21 11:28:07;;;;;;;0.95;0.85;;;28.00;89.00;;;;;;5053250;28;20284;-82
2021/06/21 11:30:38;;;;;;;2.10;1.10;;;27.90;87.20;;;;;;5052942;28;20658;-83
2021/06/21 11:33:09;;;;;;;1.63;0.70;;;27.80;91.00;;;;;;5053008;28;20226;-83
2021/06/21 11:35:58;;;;;;;1.15;1.05;;;27.70;90.90;;;;;;5052817;28;20194;-82
2021/06/21 11:38:33;;;;;;;1.00;1.00;;;27.80;90.30;;;;;;5053022;28;20191;-83
2021/06/21 11:41:18;;;;;;;0.88;0.82;;;27.60;89.00;;;;;;5053004;28;20217;-83
2021/06/21 11:43:46;;;;;;;1.67;1.38;;;27.50;89.80;;;;;;5050711;28;20702;-82
2021/06/21 11:46:40;;;;;;;2.25;1.17;;;27.60;91.20;;;;;;5053159;28;20211;-81
2021/06/21 11:49:08;;;;;;;2.35;1.02;;;27.60;87.00;;;;;;5053017;28;20278;-82
2021/06/21 11:51:35;;;;;;;1.15;0.85;;;27.70;84.90;;;;;;5052933;28;20182;-82
2021/06/21 11:54:03;;;;;;;2.90;0.95;;;27.60;83.20;;;;;;5052501;28;20235;-82
2021/06/21 11:56:31;;;;;;;0.90;0.90;;;27.40;84.20;;;;;;5052664;28;20274;-82
2021/06/21 11:58:59;;;;;;;1.00;1.00;;;27.20;87.80;;;;;;5052596;28;20560;-81
2021/06/21 12:01:28;;;;;;;0.73;0.73;;;27.00;87.90;;;;;;5052555;28;20218;-82
2021/06/21 12:03:56;;;;;;;1.33;0.90;;;27.00;91.50;;;;;;5052812;28;20234;-82
2021/06/21 12:06:23;;;;;;;1.30;0.93;;;27.00;90.80;;;;;;5052870;28;20202;-82
2021/06/21 12:08:50;;;;;;;1.52;1.02;;;26.80;89.70;;;;;;5052485;28;20187;-81
2021/06/21 12:11:18;;;;;;;1.08;1.08;;;26.70;90.10;;;;;;5052832;28;20183;-82
2021/06/21 12:13:55;;;;;;;0.95;0.90;;;26.50;90.40;;;;;;5052733;28;20230;-81
2021/06/21 12:16:23;;;;;;;0.80;0.80;;;26.40;90.60;;;;;;5052554;28;20683;-82
2021/06/21 12:18:54;;;;;;;1.00;1.00;;;26.30;91.20;;;;;;5052731;28;20190;-81
2021/06/21 12:21:33;;;;;;;1.27;0.80;;;26.40;90.10;;;;;;5052620;28;20210;-81
2021/06/21 12:24:18;;;;;;;0.77;0.77;;;26.30;89.00;;;;;;5052648;28;20222;-82
2021/06/21 12:26:47;;;;;;;1.02;0.90;;;26.20;89.60;;;;;;5052634;28;20195;-82
2021/06/21 12:29:26;;;;;;;3.75;0.90;;;26.10;91.20;;;;;;5052643;28;20190;-82
2021/06/21 12:31:54;;;;;;;0.85;0.85;;;26.00;91.20;;;;;;5054691;28;20558;-81
2021/06/21 12:34:40;;;;;;;1.52;0.82;;;25.90;92.10;;;;;;5056139;28;20218;-81
2021/06/21 12:37:12;;;;;;;2.35;0.93;;;25.70;91.10;;;;;;5056118;28;20191;-83
2021/06/21 12:39:39;;;;;;;1.40;1.05;;;25.80;90.70;;;;;;5055773;28;20187;-82
2021/06/21 12:42:09;;;;;;;1.42;1.20;;;26.00;90.70;;;;;;5055841;28;20207;-82
2021/06/21 12:44:38;;;;;;;1.60;0.90;;;26.00;91.10;;;;;;5055968;28;20198;-82
2021/06/21 12:47:15;;;;;;;4.35;1.40;;;26.00;92.00;;;;;;5055947;28;20191;-81
2021/06/21 12:49:42;;;;;;;2.22;1.58;;;25.80;93.80;;;;;;5055906;28;20187;-82
2021/06/21 12:52:09;;;;;;;3.53;2.10;;;25.90;92.70;;;;;;5055618;28;20561;-81
2021/06/21 12:54:37;;;;;;;2.80;1.00;;;25.90;93.00;;;;;;5055794;28;20210;-81
2021/06/21 12:57:04;;;;;;;3.50;1.02;;;25.80;94.00;;;;;;5055580;28;20186;-81
2021/06/21 12:59:33;;;;;;;1.27;1.17;;;25.70;94.70;;;;;;5055745;28;20191;-81
2021/06/21 13:02:03;;;;;;;1.75;1.27;;;25.70;94.50;;;;;;5055233;28;20210;-81
2021/06/21 13:04:30;;;;;;;2.38;1.20;;;25.80;94.00;;;;;;5055328;28;20202;-81